sensor_id;sensor_type;location;lat;lon;timestamp;P1;durP1;ratioP1;P2;durP2;ratioP2
76727;SDS011;65652;53.132;18.026;2022-12-07T00:00:55;16.70;;;6.00;;
76727;SDS011;65652;53.132;18.026;2022-12-07T00:03:22;15.10;;;6.10;;
76727;SDS011;65652;53.132;18.026;2022-12-07T00:05:49;13.10;;;5.30;;
76727;SDS011;65652;53.132;18.026;2022-12-07T00:08:15;12.90;;;4.60;;
76727;SDS011;65652;53.132;18.026;2022-12-07T00:10:42;15.90;;;5.90;;
76727;SDS011;65652;53.132;18.026;2022-12-07T00:13:09;14.80;;;4.80;;
76727;SDS011;65652;53.132;18.026;2022-12-07T00:15:36;13.20;;;4.90;;
76727;SDS011;65652;53.132;18.026;2022-12-07T00:18:02;11.90;;;5.10;;
76727;SDS011;65652;53.132;18.026;2022-12-07T00:20:29;14.10;;;5.30;;
76727;SDS011;65652;53.132;18.026;2022-12-07T00:22:57;10.30;;;3.90;;
76727;SDS011;65652;53.132;18.026;2022-12-07T00:25:24;13.80;;;5.10;;
76727;SDS011;65652;53.132;18.026;2022-12-07T00:27:54;13.40;;;4.70;;
76727;SDS011;65652;53.132;18.026;2022-12-07T00:30:23;10.30;;;4.20;;
76727;SDS011;65652;53.132;18.026;2022-12-07T00:32:50;14.40;;;5.20;;
76727;SDS011;65652;53.132;18.026;2022-12-07T00:35:17;13.60;;;3.80;;
76727;SDS011;65652;53.132;18.026;2022-12-07T00:37:44;15.30;;;5.80;;
76727;SDS011;65652;53.132;18.026;2022-12-07T00:40:11;13.60;;;5.60;;
76727;SDS011;65652;53.132;18.026;2022-12-07T00:42:38;13.10;;;5.40;;
76727;SDS011;65652;53.132;18.026;2022-12-07T00:45:05;11.10;;;4.10;;
76727;SDS011;65652;53.132;18.026;2022-12-07T00:47:32;10.50;;;4.30;;
76727;SDS011;65652;53.132;18.026;2022-12-07T00:49:59;11.90;;;4.10;;
76727;SDS011;65652;53.132;18.026;2022-12-07T00:52:26;7.00;;;2.20;;
76727;SDS011;65652;53.132;18.026;2022-12-07T00:54:53;10.50;;;4.00;;
76727;SDS011;65652;53.132;18.026;2022-12-07T00:57:20;11.40;;;4.60;;
76727;SDS011;65652;53.132;18.026;2022-12-07T00:59:47;9.10;;;3.70;;
76727;SDS011;65652;53.132;18.026;2022-12-07T01:02:14;11.60;;;4.10;;
76727;SDS011;65652;53.132;18.026;2022-12-07T01:04:41;8.80;;;3.90;;
76727;SDS011;65652;53.132;18.026;2022-12-07T01:07:08;8.30;;;3.50;;
76727;SDS011;65652;53.132;18.026;2022-12-07T01:09:35;9.70;;;3.50;;
76727;SDS011;65652;53.132;18.026;2022-12-07T01:12:01;9.00;;;3.30;;
76727;SDS011;65652;53.132;18.026;2022-12-07T01:14:29;10.30;;;3.90;;
76727;SDS011;65652;53.132;18.026;2022-12-07T01:16:56;9.80;;;3.60;;
76727;SDS011;65652;53.132;18.026;2022-12-07T01:19:22;10.50;;;4.00;;
76727;SDS011;65652;53.132;18.026;2022-12-07T01:21:49;9.90;;;4.10;;
76727;SDS011;65652;53.132;18.026;2022-12-07T01:24:16;11.50;;;3.80;;
76727;SDS011;65652;53.132;18.026;2022-12-07T01:26:43;10.00;;;4.10;;
76727;SDS011;65652;53.132;18.026;2022-12-07T01:29:10;8.00;;;3.20;;
76727;SDS011;65652;53.132;18.026;2022-12-07T01:31:36;8.70;;;3.00;;
76727;SDS011;65652;53.132;18.026;2022-12-07T01:34:03;7.60;;;3.00;;
76727;SDS011;65652;53.132;18.026;2022-12-07T01:36:31;6.90;;;3.50;;
76727;SDS011;65652;53.132;18.026;2022-12-07T01:39:01;8.40;;;2.80;;
76727;SDS011;65652;53.132;18.026;2022-12-07T01:41:32;6.50;;;2.70;;
76727;SDS011;65652;53.132;18.026;2022-12-07T01:44:07;8.80;;;3.20;;
76727;SDS011;65652;53.132;18.026;2022-12-07T01:46:45;8.40;;;3.50;;
76727;SDS011;65652;53.132;18.026;2022-12-07T01:49:18;9.80;;;3.20;;
76727;SDS011;65652;53.132;18.026;2022-12-07T01:51:47;7.90;;;3.10;;
76727;SDS011;65652;53.132;18.026;2022-12-07T01:54:15;8.50;;;3.00;;
76727;SDS011;65652;53.132;18.026;2022-12-07T01:56:45;8.60;;;3.20;;
76727;SDS011;65652;53.132;18.026;2022-12-07T01:59:18;6.50;;;2.20;;
76727;SDS011;65652;53.132;18.026;2022-12-07T02:01:47;6.70;;;2.80;;
76727;SDS011;65652;53.132;18.026;2022-12-07T02:04:14;8.60;;;2.50;;
76727;SDS011;65652;53.132;18.026;2022-12-07T02:06:41;6.70;;;2.20;;
76727;SDS011;65652;53.132;18.026;2022-12-07T02:09:10;8.90;;;2.60;;
76727;SDS011;65652;53.132;18.026;2022-12-07T02:11:38;13.00;;;4.60;;
76727;SDS011;65652;53.132;18.026;2022-12-07T02:14:06;7.70;;;3.30;;
76727;SDS011;65652;53.132;18.026;2022-12-07T02:30:35;11.70;;;4.20;;
76727;SDS011;65652;53.132;18.026;2022-12-07T02:35:39;13.00;;;5.90;;
76727;SDS011;65652;53.132;18.026;2022-12-07T02:38:19;16.10;;;6.10;;
76727;SDS011;65652;53.132;18.026;2022-12-07T02:40:50;13.30;;;5.00;;
76727;SDS011;65652;53.132;18.026;2022-12-07T02:43:23;13.20;;;4.70;;
76727;SDS011;65652;53.132;18.026;2022-12-07T02:45:53;13.00;;;4.90;;
76727;SDS011;65652;53.132;18.026;2022-12-07T02:48:22;10.10;;;4.00;;
76727;SDS011;65652;53.132;18.026;2022-12-07T02:50:51;14.20;;;5.80;;
76727;SDS011;65652;53.132;18.026;2022-12-07T02:53:32;13.60;;;5.60;;
76727;SDS011;65652;53.132;18.026;2022-12-07T02:56:01;13.90;;;5.30;;
76727;SDS011;65652;53.132;18.026;2022-12-07T03:03:57;22.30;;;6.80;;
76727;SDS011;65652;53.132;18.026;2022-12-07T03:06:36;13.50;;;5.40;;
76727;SDS011;65652;53.132;18.026;2022-12-07T03:09:20;19.00;;;6.80;;
76727;SDS011;65652;53.132;18.026;2022-12-07T03:12:07;17.70;;;6.70;;
76727;SDS011;65652;53.132;18.026;2022-12-07T03:14:41;18.00;;;7.90;;
76727;SDS011;65652;53.132;18.026;2022-12-07T03:17:14;14.00;;;5.60;;
76727;SDS011;65652;53.132;18.026;2022-12-07T03:19:45;10.60;;;3.80;;
76727;SDS011;65652;53.132;18.026;2022-12-07T03:22:14;14.30;;;5.80;;
76727;SDS011;65652;53.132;18.026;2022-12-07T03:24:46;11.80;;;4.90;;
76727;SDS011;65652;53.132;18.026;2022-12-07T03:27:23;11.20;;;4.60;;
76727;SDS011;65652;53.132;18.026;2022-12-07T03:29:54;14.30;;;5.30;;
76727;SDS011;65652;53.132;18.026;2022-12-07T03:35:05;17.30;;;6.40;;
76727;SDS011;65652;53.132;18.026;2022-12-07T03:37:40;13.40;;;4.80;;
76727;SDS011;65652;53.132;18.026;2022-12-07T03:43:01;13.50;;;5.00;;
76727;SDS011;65652;53.132;18.026;2022-12-07T03:45:38;9.30;;;3.70;;
76727;SDS011;65652;53.132;18.026;2022-12-07T03:48:24;11.00;;;4.90;;
76727;SDS011;65652;53.132;18.026;2022-12-07T03:51:39;10.40;;;4.40;;
76727;SDS011;65652;53.132;18.026;2022-12-07T03:54:09;13.00;;;5.30;;
76727;SDS011;65652;53.132;18.026;2022-12-07T03:56:41;13.50;;;5.00;;
76727;SDS011;65652;53.132;18.026;2022-12-07T03:59:09;13.20;;;4.40;;
76727;SDS011;65652;53.132;18.026;2022-12-07T04:01:41;11.30;;;4.20;;
76727;SDS011;65652;53.132;18.026;2022-12-07T04:04:09;9.70;;;4.20;;
76727;SDS011;65652;53.132;18.026;2022-12-07T04:06:37;13.40;;;5.50;;
76727;SDS011;65652;53.132;18.026;2022-12-07T04:09:03;10.00;;;4.20;;
76727;SDS011;65652;53.132;18.026;2022-12-07T04:11:30;10.50;;;4.60;;
76727;SDS011;65652;53.132;18.026;2022-12-07T04:13:57;10.60;;;4.70;;
76727;SDS011;65652;53.132;18.026;2022-12-07T04:16:42;11.70;;;4.70;;
76727;SDS011;65652;53.132;18.026;2022-12-07T04:19:09;12.20;;;5.50;;
76727;SDS011;65652;53.132;18.026;2022-12-07T04:21:36;8.70;;;3.60;;
76727;SDS011;65652;53.132;18.026;2022-12-07T04:24:03;10.10;;;3.90;;
76727;SDS011;65652;53.132;18.026;2022-12-07T04:26:30;10.70;;;4.30;;
76727;SDS011;65652;53.132;18.026;2022-12-07T04:28:57;10.10;;;4.30;;
76727;SDS011;65652;53.132;18.026;2022-12-07T04:31:24;9.20;;;3.80;;
76727;SDS011;65652;53.132;18.026;2022-12-07T04:33:51;8.30;;;3.70;;
76727;SDS011;65652;53.132;18.026;2022-12-07T04:36:17;7.00;;;2.90;;
76727;SDS011;65652;53.132;18.026;2022-12-07T04:38:46;7.00;;;2.60;;
76727;SDS011;65652;53.132;18.026;2022-12-07T04:41:13;8.90;;;3.60;;
76727;SDS011;65652;53.132;18.026;2022-12-07T04:43:40;9.20;;;4.00;;
76727;SDS011;65652;53.132;18.026;2022-12-07T04:46:07;9.90;;;3.70;;
76727;SDS011;65652;53.132;18.026;2022-12-07T04:48:34;9.40;;;3.90;;
76727;SDS011;65652;53.132;18.026;2022-12-07T04:51:02;10.50;;;4.20;;
76727;SDS011;65652;53.132;18.026;2022-12-07T04:53:29;9.20;;;4.00;;
76727;SDS011;65652;53.132;18.026;2022-12-07T04:55:56;7.20;;;3.10;;
76727;SDS011;65652;53.132;18.026;2022-12-07T04:58:23;8.70;;;3.60;;
76727;SDS011;65652;53.132;18.026;2022-12-07T05:00:53;9.30;;;4.00;;
76727;SDS011;65652;53.132;18.026;2022-12-07T05:03:21;7.70;;;3.40;;
76727;SDS011;65652;53.132;18.026;2022-12-07T05:05:47;9.60;;;3.60;;
76727;SDS011;65652;53.132;18.026;2022-12-07T05:08:14;7.90;;;3.00;;
76727;SDS011;65652;53.132;18.026;2022-12-07T05:10:41;9.60;;;3.50;;
76727;SDS011;65652;53.132;18.026;2022-12-07T05:13:08;6.90;;;2.70;;
76727;SDS011;65652;53.132;18.026;2022-12-07T05:15:35;7.30;;;2.90;;
76727;SDS011;65652;53.132;18.026;2022-12-07T05:18:01;5.00;;;1.80;;
76727;SDS011;65652;53.132;18.026;2022-12-07T05:20:29;6.90;;;2.70;;
76727;SDS011;65652;53.132;18.026;2022-12-07T05:22:56;7.20;;;2.70;;
76727;SDS011;65652;53.132;18.026;2022-12-07T05:25:24;8.80;;;3.90;;
76727;SDS011;65652;53.132;18.026;2022-12-07T05:27:51;10.60;;;3.50;;
76727;SDS011;65652;53.132;18.026;2022-12-07T05:30:18;8.00;;;2.80;;
76727;SDS011;65652;53.132;18.026;2022-12-07T05:32:45;8.80;;;2.90;;
76727;SDS011;65652;53.132;18.026;2022-12-07T05:35:12;9.10;;;3.50;;
76727;SDS011;65652;53.132;18.026;2022-12-07T05:37:39;6.50;;;2.30;;
76727;SDS011;65652;53.132;18.026;2022-12-07T05:40:06;6.20;;;2.10;;
76727;SDS011;65652;53.132;18.026;2022-12-07T05:42:33;9.80;;;3.80;;
76727;SDS011;65652;53.132;18.026;2022-12-07T05:45:00;7.20;;;2.50;;
76727;SDS011;65652;53.132;18.026;2022-12-07T05:47:27;10.60;;;2.40;;
76727;SDS011;65652;53.132;18.026;2022-12-07T05:49:54;12.40;;;4.70;;
76727;SDS011;65652;53.132;18.026;2022-12-07T05:52:21;13.40;;;4.10;;
76727;SDS011;65652;53.132;18.026;2022-12-07T05:54:48;14.10;;;5.00;;
76727;SDS011;65652;53.132;18.026;2022-12-07T05:57:15;13.90;;;4.00;;
76727;SDS011;65652;53.132;18.026;2022-12-07T05:59:42;13.20;;;4.40;;
76727;SDS011;65652;53.132;18.026;2022-12-07T06:02:10;11.30;;;4.40;;
76727;SDS011;65652;53.132;18.026;2022-12-07T06:04:40;11.30;;;4.20;;
76727;SDS011;65652;53.132;18.026;2022-12-07T06:07:08;12.50;;;4.40;;
76727;SDS011;65652;53.132;18.026;2022-12-07T06:09:36;16.10;;;4.40;;
76727;SDS011;65652;53.132;18.026;2022-12-07T06:12:04;15.20;;;5.40;;
76727;SDS011;65652;53.132;18.026;2022-12-07T06:14:50;13.60;;;4.00;;
76727;SDS011;65652;53.132;18.026;2022-12-07T06:17:17;12.80;;;4.10;;
76727;SDS011;65652;53.132;18.026;2022-12-07T06:19:44;12.50;;;4.80;;
76727;SDS011;65652;53.132;18.026;2022-12-07T06:22:11;12.70;;;5.00;;
76727;SDS011;65652;53.132;18.026;2022-12-07T06:24:38;10.80;;;3.10;;
76727;SDS011;65652;53.132;18.026;2022-12-07T06:27:06;19.10;;;6.40;;
76727;SDS011;65652;53.132;18.026;2022-12-07T06:29:33;18.20;;;6.40;;
76727;SDS011;65652;53.132;18.026;2022-12-07T06:31:59;19.10;;;6.80;;
76727;SDS011;65652;53.132;18.026;2022-12-07T06:34:26;18.70;;;5.90;;
76727;SDS011;65652;53.132;18.026;2022-12-07T06:36:53;18.50;;;6.20;;
76727;SDS011;65652;53.132;18.026;2022-12-07T06:39:22;14.70;;;6.00;;
76727;SDS011;65652;53.132;18.026;2022-12-07T06:41:51;11.60;;;4.40;;
76727;SDS011;65652;53.132;18.026;2022-12-07T06:44:18;13.30;;;4.80;;
76727;SDS011;65652;53.132;18.026;2022-12-07T06:46:45;15.40;;;5.50;;
76727;SDS011;65652;53.132;18.026;2022-12-07T06:49:12;20.80;;;7.30;;
76727;SDS011;65652;53.132;18.026;2022-12-07T06:51:39;16.60;;;6.70;;
76727;SDS011;65652;53.132;18.026;2022-12-07T06:54:08;16.70;;;5.00;;
76727;SDS011;65652;53.132;18.026;2022-12-07T06:56:36;17.30;;;7.00;;
76727;SDS011;65652;53.132;18.026;2022-12-07T06:59:03;13.40;;;5.70;;
76727;SDS011;65652;53.132;18.026;2022-12-07T07:01:33;10.30;;;3.80;;
76727;SDS011;65652;53.132;18.026;2022-12-07T07:04:01;18.10;;;6.20;;
76727;SDS011;65652;53.132;18.026;2022-12-07T07:06:28;17.90;;;6.20;;
76727;SDS011;65652;53.132;18.026;2022-12-07T07:08:55;20.20;;;7.20;;
76727;SDS011;65652;53.132;18.026;2022-12-07T07:11:22;18.30;;;6.60;;
76727;SDS011;65652;53.132;18.026;2022-12-07T07:13:49;17.10;;;5.60;;
76727;SDS011;65652;53.132;18.026;2022-12-07T07:16:15;16.20;;;5.90;;
76727;SDS011;65652;53.132;18.026;2022-12-07T07:18:42;20.80;;;7.30;;
76727;SDS011;65652;53.132;18.026;2022-12-07T07:21:09;18.60;;;6.20;;
76727;SDS011;65652;53.132;18.026;2022-12-07T07:23:36;19.60;;;7.60;;
76727;SDS011;65652;53.132;18.026;2022-12-07T07:26:03;20.10;;;6.70;;
76727;SDS011;65652;53.132;18.026;2022-12-07T07:28:30;21.80;;;8.00;;
76727;SDS011;65652;53.132;18.026;2022-12-07T07:30:56;19.30;;;6.90;;
76727;SDS011;65652;53.132;18.026;2022-12-07T07:33:23;19.40;;;6.80;;
76727;SDS011;65652;53.132;18.026;2022-12-07T07:35:50;14.80;;;5.70;;
76727;SDS011;65652;53.132;18.026;2022-12-07T07:38:17;23.10;;;8.30;;
76727;SDS011;65652;53.132;18.026;2022-12-07T07:40:44;17.30;;;6.90;;
76727;SDS011;65652;53.132;18.026;2022-12-07T07:43:11;20.00;;;7.40;;
76727;SDS011;65652;53.132;18.026;2022-12-07T07:45:38;21.10;;;8.30;;
76727;SDS011;65652;53.132;18.026;2022-12-07T07:48:05;22.50;;;8.50;;
76727;SDS011;65652;53.132;18.026;2022-12-07T07:50:32;21.00;;;7.30;;
76727;SDS011;65652;53.132;18.026;2022-12-07T07:52:59;18.50;;;6.00;;
76727;SDS011;65652;53.132;18.026;2022-12-07T07:55:25;19.70;;;6.90;;
76727;SDS011;65652;53.132;18.026;2022-12-07T07:57:53;13.30;;;4.90;;
76727;SDS011;65652;53.132;18.026;2022-12-07T08:00:20;18.90;;;6.10;;
76727;SDS011;65652;53.132;18.026;2022-12-07T08:02:48;18.80;;;5.90;;
76727;SDS011;65652;53.132;18.026;2022-12-07T08:05:15;17.20;;;6.70;;
76727;SDS011;65652;53.132;18.026;2022-12-07T08:07:42;15.80;;;5.40;;
76727;SDS011;65652;53.132;18.026;2022-12-07T08:10:10;14.80;;;5.50;;
76727;SDS011;65652;53.132;18.026;2022-12-07T08:12:39;18.40;;;7.10;;
76727;SDS011;65652;53.132;18.026;2022-12-07T08:15:27;15.40;;;5.90;;
76727;SDS011;65652;53.132;18.026;2022-12-07T08:20:22;16.10;;;6.80;;
76727;SDS011;65652;53.132;18.026;2022-12-07T08:22:49;15.90;;;6.40;;
76727;SDS011;65652;53.132;18.026;2022-12-07T08:25:16;17.70;;;7.10;;
76727;SDS011;65652;53.132;18.026;2022-12-07T08:27:43;18.60;;;7.60;;
76727;SDS011;65652;53.132;18.026;2022-12-07T08:30:10;20.20;;;7.60;;
76727;SDS011;65652;53.132;18.026;2022-12-07T08:32:37;16.70;;;7.10;;
76727;SDS011;65652;53.132;18.026;2022-12-07T08:35:04;16.60;;;6.80;;
76727;SDS011;65652;53.132;18.026;2022-12-07T08:37:31;13.90;;;6.40;;
76727;SDS011;65652;53.132;18.026;2022-12-07T08:39:59;15.20;;;7.20;;
76727;SDS011;65652;53.132;18.026;2022-12-07T08:42:25;17.90;;;7.20;;
76727;SDS011;65652;53.132;18.026;2022-12-07T08:44:56;19.60;;;8.10;;
76727;SDS011;65652;53.132;18.026;2022-12-07T08:47:23;18.90;;;7.90;;
76727;SDS011;65652;53.132;18.026;2022-12-07T08:49:51;17.60;;;6.70;;
76727;SDS011;65652;53.132;18.026;2022-12-07T08:52:20;18.80;;;6.80;;
76727;SDS011;65652;53.132;18.026;2022-12-07T08:54:47;15.90;;;7.10;;
76727;SDS011;65652;53.132;18.026;2022-12-07T08:57:14;14.10;;;5.30;;
76727;SDS011;65652;53.132;18.026;2022-12-07T08:59:41;17.40;;;6.10;;
76727;SDS011;65652;53.132;18.026;2022-12-07T09:02:08;16.40;;;6.50;;
76727;SDS011;65652;53.132;18.026;2022-12-07T09:04:35;13.50;;;5.50;;
76727;SDS011;65652;53.132;18.026;2022-12-07T09:07:02;14.10;;;6.10;;
76727;SDS011;65652;53.132;18.026;2022-12-07T09:09:30;17.20;;;6.70;;
76727;SDS011;65652;53.132;18.026;2022-12-07T09:11:57;16.70;;;6.90;;
76727;SDS011;65652;53.132;18.026;2022-12-07T09:14:24;14.20;;;5.80;;
76727;SDS011;65652;53.132;18.026;2022-12-07T09:16:50;16.20;;;6.60;;
76727;SDS011;65652;53.132;18.026;2022-12-07T09:19:17;15.10;;;6.30;;
76727;SDS011;65652;53.132;18.026;2022-12-07T09:21:44;14.50;;;6.50;;
76727;SDS011;65652;53.132;18.026;2022-12-07T09:24:12;11.70;;;5.60;;
76727;SDS011;65652;53.132;18.026;2022-12-07T09:26:39;11.10;;;4.80;;
76727;SDS011;65652;53.132;18.026;2022-12-07T09:29:06;12.30;;;5.30;;
76727;SDS011;65652;53.132;18.026;2022-12-07T09:31:35;11.90;;;4.50;;
76727;SDS011;65652;53.132;18.026;2022-12-07T09:34:02;12.60;;;5.90;;
76727;SDS011;65652;53.132;18.026;2022-12-07T09:38:58;13.20;;;5.50;;
76727;SDS011;65652;53.132;18.026;2022-12-07T09:41:25;14.40;;;5.60;;
76727;SDS011;65652;53.132;18.026;2022-12-07T09:43:54;15.40;;;5.80;;
76727;SDS011;65652;53.132;18.026;2022-12-07T09:46:31;12.50;;;5.00;;
76727;SDS011;65652;53.132;18.026;2022-12-07T09:49:03;13.50;;;5.80;;
76727;SDS011;65652;53.132;18.026;2022-12-07T09:51:30;14.60;;;5.90;;
76727;SDS011;65652;53.132;18.026;2022-12-07T09:53:58;12.50;;;5.40;;
76727;SDS011;65652;53.132;18.026;2022-12-07T09:56:28;12.20;;;5.00;;
76727;SDS011;65652;53.132;18.026;2022-12-07T09:58:59;15.60;;;6.40;;
76727;SDS011;65652;53.132;18.026;2022-12-07T10:01:30;14.30;;;5.70;;
76727;SDS011;65652;53.132;18.026;2022-12-07T10:06:47;14.50;;;6.80;;
76727;SDS011;65652;53.132;18.026;2022-12-07T10:09:16;12.60;;;5.40;;
76727;SDS011;65652;53.132;18.026;2022-12-07T10:15:00;15.60;;;6.70;;
76727;SDS011;65652;53.132;18.026;2022-12-07T10:17:33;12.40;;;5.60;;
76727;SDS011;65652;53.132;18.026;2022-12-07T10:20:14;12.70;;;4.90;;
76727;SDS011;65652;53.132;18.026;2022-12-07T10:25:21;16.50;;;7.00;;
76727;SDS011;65652;53.132;18.026;2022-12-07T10:35:55;13.70;;;5.40;;
76727;SDS011;65652;53.132;18.026;2022-12-07T10:38:22;13.40;;;6.10;;
76727;SDS011;65652;53.132;18.026;2022-12-07T10:41:04;13.40;;;6.20;;
76727;SDS011;65652;53.132;18.026;2022-12-07T10:43:33;12.00;;;5.50;;
76727;SDS011;65652;53.132;18.026;2022-12-07T10:46:22;15.20;;;5.70;;
76727;SDS011;65652;53.132;18.026;2022-12-07T10:57:24;11.80;;;5.90;;
76727;SDS011;65652;53.132;18.026;2022-12-07T11:00:19;11.60;;;5.30;;
76727;SDS011;65652;53.132;18.026;2022-12-07T11:19:10;12.50;;;5.40;;
76727;SDS011;65652;53.132;18.026;2022-12-07T11:21:51;10.20;;;4.20;;
76727;SDS011;65652;53.132;18.026;2022-12-07T11:24:39;14.30;;;5.50;;
76727;SDS011;65652;53.132;18.026;2022-12-07T11:30:24;15.50;;;6.60;;
76727;SDS011;65652;53.132;18.026;2022-12-07T11:38:12;12.70;;;5.10;;
76727;SDS011;65652;53.132;18.026;2022-12-07T11:40:42;11.70;;;5.30;;
76727;SDS011;65652;53.132;18.026;2022-12-07T11:46:12;11.30;;;5.80;;
76727;SDS011;65652;53.132;18.026;2022-12-07T11:48:43;7.90;;;3.50;;
76727;SDS011;65652;53.132;18.026;2022-12-07T11:51:15;15.40;;;6.60;;
76727;SDS011;65652;53.132;18.026;2022-12-07T11:53:46;12.80;;;5.60;;
76727;SDS011;65652;53.132;18.026;2022-12-07T11:56:19;16.20;;;6.20;;
76727;SDS011;65652;53.132;18.026;2022-12-07T12:06:28;14.40;;;6.70;;
76727;SDS011;65652;53.132;18.026;2022-12-07T12:22:52;10.60;;;4.70;;
76727;SDS011;65652;53.132;18.026;2022-12-07T12:25:35;9.60;;;4.20;;
76727;SDS011;65652;53.132;18.026;2022-12-07T12:28:05;11.60;;;4.80;;
76727;SDS011;65652;53.132;18.026;2022-12-07T12:33:25;17.30;;;7.50;;
76727;SDS011;65652;53.132;18.026;2022-12-07T12:46:54;14.30;;;6.30;;
76727;SDS011;65652;53.132;18.026;2022-12-07T12:54:21;13.00;;;5.80;;
76727;SDS011;65652;53.132;18.026;2022-12-07T12:59:36;14.20;;;5.90;;
76727;SDS011;65652;53.132;18.026;2022-12-07T13:02:15;14.20;;;5.60;;
76727;SDS011;65652;53.132;18.026;2022-12-07T13:20:56;13.40;;;5.80;;
76727;SDS011;65652;53.132;18.026;2022-12-07T13:23:35;11.80;;;5.00;;
76727;SDS011;65652;53.132;18.026;2022-12-07T13:28:48;10.30;;;4.50;;
76727;SDS011;65652;53.132;18.026;2022-12-07T13:31:35;15.30;;;5.70;;
76727;SDS011;65652;53.132;18.026;2022-12-07T13:34:04;15.00;;;6.30;;
76727;SDS011;65652;53.132;18.026;2022-12-07T13:36:51;13.60;;;5.50;;
76727;SDS011;65652;53.132;18.026;2022-12-07T13:39:19;11.40;;;4.50;;
76727;SDS011;65652;53.132;18.026;2022-12-07T13:41:53;13.90;;;6.20;;
76727;SDS011;65652;53.132;18.026;2022-12-07T13:44:25;12.90;;;5.90;;
76727;SDS011;65652;53.132;18.026;2022-12-07T13:49:36;14.20;;;6.40;;
76727;SDS011;65652;53.132;18.026;2022-12-07T13:52:19;14.60;;;5.50;;
76727;SDS011;65652;53.132;18.026;2022-12-07T13:54:49;18.00;;;6.60;;
76727;SDS011;65652;53.132;18.026;2022-12-07T13:57:21;14.70;;;6.50;;
76727;SDS011;65652;53.132;18.026;2022-12-07T13:59:50;14.70;;;6.50;;
76727;SDS011;65652;53.132;18.026;2022-12-07T14:02:28;13.70;;;6.40;;
76727;SDS011;65652;53.132;18.026;2022-12-07T14:07:55;14.20;;;5.80;;
76727;SDS011;65652;53.132;18.026;2022-12-07T14:10:30;16.10;;;6.50;;
76727;SDS011;65652;53.132;18.026;2022-12-07T14:13:01;15.90;;;6.70;;
76727;SDS011;65652;53.132;18.026;2022-12-07T14:15:51;14.70;;;6.20;;
76727;SDS011;65652;53.132;18.026;2022-12-07T14:18:28;10.40;;;4.20;;
76727;SDS011;65652;53.132;18.026;2022-12-07T14:23:46;14.00;;;6.20;;
76727;SDS011;65652;53.132;18.026;2022-12-07T14:26:29;13.30;;;6.20;;
76727;SDS011;65652;53.132;18.026;2022-12-07T14:29:18;11.80;;;4.90;;
76727;SDS011;65652;53.132;18.026;2022-12-07T14:31:52;15.90;;;6.70;;
76727;SDS011;65652;53.132;18.026;2022-12-07T14:34:23;30.60;;;11.90;;
76727;SDS011;65652;53.132;18.026;2022-12-07T14:36:51;10.30;;;4.10;;
76727;SDS011;65652;53.132;18.026;2022-12-07T14:39:18;15.20;;;6.60;;
76727;SDS011;65652;53.132;18.026;2022-12-07T14:41:45;22.00;;;10.70;;
76727;SDS011;65652;53.132;18.026;2022-12-07T14:44:23;19.20;;;7.20;;
76727;SDS011;65652;53.132;18.026;2022-12-07T14:46:50;12.40;;;5.70;;
76727;SDS011;65652;53.132;18.026;2022-12-07T14:49:18;15.10;;;5.90;;
76727;SDS011;65652;53.132;18.026;2022-12-07T14:51:45;12.00;;;5.30;;
76727;SDS011;65652;53.132;18.026;2022-12-07T14:54:15;9.40;;;5.10;;
76727;SDS011;65652;53.132;18.026;2022-12-07T14:56:44;14.20;;;6.20;;
76727;SDS011;65652;53.132;18.026;2022-12-07T14:59:15;16.60;;;9.40;;
76727;SDS011;65652;53.132;18.026;2022-12-07T15:01:43;12.00;;;5.70;;
76727;SDS011;65652;53.132;18.026;2022-12-07T15:04:10;13.70;;;5.40;;
76727;SDS011;65652;53.132;18.026;2022-12-07T15:06:37;11.80;;;5.30;;
76727;SDS011;65652;53.132;18.026;2022-12-07T15:09:04;11.60;;;5.50;;
76727;SDS011;65652;53.132;18.026;2022-12-07T15:11:31;15.40;;;6.90;;
76727;SDS011;65652;53.132;18.026;2022-12-07T15:13:58;10.60;;;4.20;;
76727;SDS011;65652;53.132;18.026;2022-12-07T15:16:39;13.60;;;5.90;;
76727;SDS011;65652;53.132;18.026;2022-12-07T15:19:25;16.20;;;6.10;;
76727;SDS011;65652;53.132;18.026;2022-12-07T15:24:20;15.00;;;6.80;;
76727;SDS011;65652;53.132;18.026;2022-12-07T15:26:47;13.90;;;6.50;;
76727;SDS011;65652;53.132;18.026;2022-12-07T15:29:14;15.60;;;6.60;;
76727;SDS011;65652;53.132;18.026;2022-12-07T15:31:42;18.30;;;7.70;;
76727;SDS011;65652;53.132;18.026;2022-12-07T15:34:09;15.30;;;7.10;;
76727;SDS011;65652;53.132;18.026;2022-12-07T15:36:36;14.50;;;6.50;;
76727;SDS011;65652;53.132;18.026;2022-12-07T15:39:03;15.90;;;7.00;;
76727;SDS011;65652;53.132;18.026;2022-12-07T15:41:30;15.40;;;6.40;;
76727;SDS011;65652;53.132;18.026;2022-12-07T15:43:57;15.30;;;7.10;;
76727;SDS011;65652;53.132;18.026;2022-12-07T15:46:42;15.60;;;6.00;;
76727;SDS011;65652;53.132;18.026;2022-12-07T15:49:10;12.30;;;5.10;;
76727;SDS011;65652;53.132;18.026;2022-12-07T15:51:40;15.30;;;6.50;;
76727;SDS011;65652;53.132;18.026;2022-12-07T15:54:21;17.20;;;7.90;;
76727;SDS011;65652;53.132;18.026;2022-12-07T15:56:50;12.50;;;5.00;;
76727;SDS011;65652;53.132;18.026;2022-12-07T15:59:17;14.40;;;6.40;;
76727;SDS011;65652;53.132;18.026;2022-12-07T16:01:44;16.90;;;7.90;;
76727;SDS011;65652;53.132;18.026;2022-12-07T16:04:11;14.00;;;6.10;;
76727;SDS011;65652;53.132;18.026;2022-12-07T16:06:38;17.20;;;7.50;;
76727;SDS011;65652;53.132;18.026;2022-12-07T16:09:06;20.50;;;9.10;;
76727;SDS011;65652;53.132;18.026;2022-12-07T16:11:33;18.10;;;9.10;;
76727;SDS011;65652;53.132;18.026;2022-12-07T16:14:00;21.50;;;9.00;;
76727;SDS011;65652;53.132;18.026;2022-12-07T16:16:27;18.20;;;6.00;;
76727;SDS011;65652;53.132;18.026;2022-12-07T16:18:54;18.40;;;8.10;;
76727;SDS011;65652;53.132;18.026;2022-12-07T16:21:21;17.40;;;8.00;;
76727;SDS011;65652;53.132;18.026;2022-12-07T16:23:48;15.40;;;6.80;;
76727;SDS011;65652;53.132;18.026;2022-12-07T16:26:17;14.50;;;6.00;;
76727;SDS011;65652;53.132;18.026;2022-12-07T16:28:50;20.60;;;7.40;;
76727;SDS011;65652;53.132;18.026;2022-12-07T16:31:19;30.40;;;17.50;;
76727;SDS011;65652;53.132;18.026;2022-12-07T16:33:49;16.60;;;6.40;;
76727;SDS011;65652;53.132;18.026;2022-12-07T16:36:17;18.10;;;7.50;;
76727;SDS011;65652;53.132;18.026;2022-12-07T16:38:44;16.80;;;7.30;;
76727;SDS011;65652;53.132;18.026;2022-12-07T16:41:11;23.90;;;9.00;;
76727;SDS011;65652;53.132;18.026;2022-12-07T16:43:39;22.80;;;10.40;;
76727;SDS011;65652;53.132;18.026;2022-12-07T16:46:06;22.30;;;9.90;;
76727;SDS011;65652;53.132;18.026;2022-12-07T16:48:36;18.70;;;7.00;;
76727;SDS011;65652;53.132;18.026;2022-12-07T16:51:05;15.50;;;6.40;;
76727;SDS011;65652;53.132;18.026;2022-12-07T16:53:33;20.40;;;7.40;;
76727;SDS011;65652;53.132;18.026;2022-12-07T16:56:00;18.40;;;6.50;;
76727;SDS011;65652;53.132;18.026;2022-12-07T16:58:27;17.70;;;7.00;;
76727;SDS011;65652;53.132;18.026;2022-12-07T17:00:55;19.00;;;8.10;;
76727;SDS011;65652;53.132;18.026;2022-12-07T17:03:21;25.90;;;10.10;;
76727;SDS011;65652;53.132;18.026;2022-12-07T17:05:48;22.10;;;11.20;;
76727;SDS011;65652;53.132;18.026;2022-12-07T17:08:15;19.80;;;10.50;;
76727;SDS011;65652;53.132;18.026;2022-12-07T17:10:43;14.10;;;5.80;;
76727;SDS011;65652;53.132;18.026;2022-12-07T17:13:11;17.90;;;9.00;;
76727;SDS011;65652;53.132;18.026;2022-12-07T17:15:58;19.70;;;10.50;;